sensor_id;sensor_type;location;lat;lon;timestamp;P1;durP1;ratioP1;P2;durP2;ratioP2
76115;SDS011;64847;45.778;12.802;2024-02-23T00:01:04;11.13;;;9.90;;
76115;SDS011;64847;45.778;12.802;2024-02-23T00:03:29;10.77;;;9.77;;
76115;SDS011;64847;45.778;12.802;2024-02-23T00:05:55;10.43;;;9.43;;
76115;SDS011;64847;45.778;12.802;2024-02-23T00:08:20;10.37;;;9.40;;
76115;SDS011;64847;45.778;12.802;2024-02-23T00:10:46;9.73;;;8.83;;
76115;SDS011;64847;45.778;12.802;2024-02-23T00:13:11;9.90;;;9.00;;
76115;SDS011;64847;45.778;12.802;2024-02-23T00:15:36;8.60;;;7.90;;
76115;SDS011;64847;45.778;12.802;2024-02-23T00:18:02;8.83;;;8.03;;
76115;SDS011;64847;45.778;12.802;2024-02-23T00:20:29;9.50;;;8.60;;
76115;SDS011;64847;45.778;12.802;2024-02-23T00:22:54;8.73;;;7.97;;
76115;SDS011;64847;45.778;12.802;2024-02-23T00:25:20;9.27;;;8.47;;
76115;SDS011;64847;45.778;12.802;2024-02-23T00:27:45;8.83;;;8.03;;
76115;SDS011;64847;45.778;12.802;2024-02-23T00:30:12;9.03;;;8.13;;
76115;SDS011;64847;45.778;12.802;2024-02-23T00:32:38;8.20;;;7.50;;
76115;SDS011;64847;45.778;12.802;2024-02-23T00:35:03;7.90;;;7.13;;
76115;SDS011;64847;45.778;12.802;2024-02-23T00:37:29;8.30;;;7.47;;
76115;SDS011;64847;45.778;12.802;2024-02-23T00:40:00;8.63;;;7.87;;
76115;SDS011;64847;45.778;12.802;2024-02-23T00:42:31;8.40;;;7.70;;
76115;SDS011;64847;45.778;12.802;2024-02-23T00:44:57;8.37;;;7.63;;
76115;SDS011;64847;45.778;12.802;2024-02-23T00:47:22;8.50;;;7.70;;
76115;SDS011;64847;45.778;12.802;2024-02-23T00:49:48;8.43;;;7.63;;
76115;SDS011;64847;45.778;12.802;2024-02-23T00:52:14;8.30;;;7.60;;
76115;SDS011;64847;45.778;12.802;2024-02-23T00:54:39;8.30;;;7.50;;
76115;SDS011;64847;45.778;12.802;2024-02-23T00:57:05;7.80;;;7.00;;
76115;SDS011;64847;45.778;12.802;2024-02-23T00:59:30;8.47;;;7.67;;
76115;SDS011;64847;45.778;12.802;2024-02-23T01:01:55;8.53;;;7.73;;
76115;SDS011;64847;45.778;12.802;2024-02-23T01:04:21;7.83;;;7.17;;
76115;SDS011;64847;45.778;12.802;2024-02-23T01:06:46;7.73;;;7.03;;
76115;SDS011;64847;45.778;12.802;2024-02-23T01:09:12;7.70;;;7.00;;
76115;SDS011;64847;45.778;12.802;2024-02-23T01:11:38;6.90;;;6.30;;
76115;SDS011;64847;45.778;12.802;2024-02-23T01:14:03;7.60;;;6.90;;
76115;SDS011;64847;45.778;12.802;2024-02-23T01:16:29;7.17;;;6.47;;
76115;SDS011;64847;45.778;12.802;2024-02-23T01:18:54;6.87;;;6.17;;
76115;SDS011;64847;45.778;12.802;2024-02-23T01:21:19;6.83;;;6.00;;
76115;SDS011;64847;45.778;12.802;2024-02-23T01:23:45;7.43;;;6.70;;
76115;SDS011;64847;45.778;12.802;2024-02-23T01:26:10;6.30;;;5.80;;
76115;SDS011;64847;45.778;12.802;2024-02-23T01:28:36;6.43;;;5.93;;
76115;SDS011;64847;45.778;12.802;2024-02-23T01:31:01;6.53;;;5.93;;
76115;SDS011;64847;45.778;12.802;2024-02-23T01:33:29;6.57;;;5.97;;
76115;SDS011;64847;45.778;12.802;2024-02-23T01:35:54;6.63;;;5.70;;
76115;SDS011;64847;45.778;12.802;2024-02-23T01:38:21;6.63;;;5.50;;
76115;SDS011;64847;45.778;12.802;2024-02-23T01:40:47;5.73;;;5.27;;
76115;SDS011;64847;45.778;12.802;2024-02-23T01:43:13;5.93;;;5.33;;
76115;SDS011;64847;45.778;12.802;2024-02-23T01:45:38;5.60;;;5.20;;
76115;SDS011;64847;45.778;12.802;2024-02-23T01:48:04;4.67;;;4.37;;
76115;SDS011;64847;45.778;12.802;2024-02-23T01:50:30;4.90;;;4.40;;
76115;SDS011;64847;45.778;12.802;2024-02-23T01:52:56;4.43;;;3.93;;
76115;SDS011;64847;45.778;12.802;2024-02-23T01:55:25;5.13;;;4.63;;
76115;SDS011;64847;45.778;12.802;2024-02-23T01:57:50;5.00;;;4.60;;
76115;SDS011;64847;45.778;12.802;2024-02-23T02:00:17;5.63;;;4.47;;
76115;SDS011;64847;45.778;12.802;2024-02-23T02:02:43;4.50;;;4.07;;
76115;SDS011;64847;45.778;12.802;2024-02-23T02:05:09;4.70;;;4.30;;
76115;SDS011;64847;45.778;12.802;2024-02-23T02:07:35;4.50;;;4.10;;
76115;SDS011;64847;45.778;12.802;2024-02-23T02:10:01;4.80;;;4.30;;
76115;SDS011;64847;45.778;12.802;2024-02-23T02:12:28;4.67;;;3.87;;
76115;SDS011;64847;45.778;12.802;2024-02-23T02:14:54;3.70;;;3.50;;
76115;SDS011;64847;45.778;12.802;2024-02-23T02:17:20;4.03;;;3.63;;
76115;SDS011;64847;45.778;12.802;2024-02-23T02:19:49;3.90;;;3.60;;
76115;SDS011;64847;45.778;12.802;2024-02-23T02:22:15;3.37;;;3.13;;
76115;SDS011;64847;45.778;12.802;2024-02-23T02:24:40;3.80;;;3.30;;
76115;SDS011;64847;45.778;12.802;2024-02-23T02:27:08;3.03;;;2.83;;
76115;SDS011;64847;45.778;12.802;2024-02-23T02:29:35;3.47;;;2.97;;
76115;SDS011;64847;45.778;12.802;2024-02-23T02:32:00;2.57;;;2.47;;
76115;SDS011;64847;45.778;12.802;2024-02-23T02:34:26;2.70;;;2.60;;
76115;SDS011;64847;45.778;12.802;2024-02-23T02:36:51;3.07;;;2.50;;
76115;SDS011;64847;45.778;12.802;2024-02-23T02:39:17;2.63;;;2.43;;
76115;SDS011;64847;45.778;12.802;2024-02-23T02:41:42;3.17;;;2.70;;
76115;SDS011;64847;45.778;12.802;2024-02-23T02:44:07;2.70;;;2.50;;
76115;SDS011;64847;45.778;12.802;2024-02-23T02:46:34;2.33;;;2.00;;
76115;SDS011;64847;45.778;12.802;2024-02-23T02:49:00;3.47;;;2.60;;
76115;SDS011;64847;45.778;12.802;2024-02-23T02:51:26;2.40;;;2.20;;
76115;SDS011;64847;45.778;12.802;2024-02-23T02:53:51;2.50;;;2.40;;
76115;SDS011;64847;45.778;12.802;2024-02-23T02:56:17;3.17;;;2.50;;
76115;SDS011;64847;45.778;12.802;2024-02-23T02:58:42;2.77;;;2.50;;
76115;SDS011;64847;45.778;12.802;2024-02-23T03:01:07;3.70;;;2.70;;
76115;SDS011;64847;45.778;12.802;2024-02-23T03:03:33;3.20;;;2.70;;
76115;SDS011;64847;45.778;12.802;2024-02-23T03:05:59;3.70;;;2.63;;
76115;SDS011;64847;45.778;12.802;2024-02-23T03:08:25;3.33;;;2.73;;
76115;SDS011;64847;45.778;12.802;2024-02-23T03:10:51;3.43;;;2.53;;
76115;SDS011;64847;45.778;12.802;2024-02-23T03:13:16;3.30;;;2.83;;
76115;SDS011;64847;45.778;12.802;2024-02-23T03:15:42;2.73;;;2.53;;
76115;SDS011;64847;45.778;12.802;2024-02-23T03:18:07;3.33;;;2.80;;
76115;SDS011;64847;45.778;12.802;2024-02-23T03:20:34;2.70;;;2.50;;
76115;SDS011;64847;45.778;12.802;2024-02-23T03:23:00;2.97;;;2.67;;
76115;SDS011;64847;45.778;12.802;2024-02-23T03:25:27;4.60;;;2.80;;
76115;SDS011;64847;45.778;12.802;2024-02-23T03:27:52;3.53;;;3.03;;
76115;SDS011;64847;45.778;12.802;2024-02-23T03:30:18;3.23;;;2.87;;
76115;SDS011;64847;45.778;12.802;2024-02-23T03:32:43;3.23;;;2.83;;
76115;SDS011;64847;45.778;12.802;2024-02-23T03:35:09;3.63;;;2.77;;
76115;SDS011;64847;45.778;12.802;2024-02-23T03:37:34;4.10;;;2.90;;
76115;SDS011;64847;45.778;12.802;2024-02-23T03:40:00;2.47;;;2.30;;
76115;SDS011;64847;45.778;12.802;2024-02-23T03:42:25;3.87;;;2.73;;
76115;SDS011;64847;45.778;12.802;2024-02-23T03:44:51;5.13;;;3.07;;
76115;SDS011;64847;45.778;12.802;2024-02-23T03:47:17;3.27;;;2.70;;
76115;SDS011;64847;45.778;12.802;2024-02-23T03:49:42;2.90;;;2.43;;
76115;SDS011;64847;45.778;12.802;2024-02-23T03:52:08;3.83;;;2.57;;
76115;SDS011;64847;45.778;12.802;2024-02-23T03:54:33;3.07;;;2.63;;
76115;SDS011;64847;45.778;12.802;2024-02-23T03:56:58;2.63;;;2.40;;
76115;SDS011;64847;45.778;12.802;2024-02-23T03:59:24;3.13;;;2.50;;
76115;SDS011;64847;45.778;12.802;2024-02-23T04:01:49;3.67;;;2.60;;
76115;SDS011;64847;45.778;12.802;2024-02-23T04:04:15;4.63;;;2.90;;
76115;SDS011;64847;45.778;12.802;2024-02-23T04:06:40;2.70;;;2.33;;
76115;SDS011;64847;45.778;12.802;2024-02-23T04:09:06;4.30;;;2.80;;
76115;SDS011;64847;45.778;12.802;2024-02-23T04:11:32;3.87;;;2.60;;
76115;SDS011;64847;45.778;12.802;2024-02-23T04:13:57;2.93;;;2.43;;
76115;SDS011;64847;45.778;12.802;2024-02-23T04:16:23;2.60;;;2.40;;
76115;SDS011;64847;45.778;12.802;2024-02-23T04:18:50;3.10;;;2.47;;
76115;SDS011;64847;45.778;12.802;2024-02-23T04:21:15;3.87;;;2.43;;
76115;SDS011;64847;45.778;12.802;2024-02-23T04:23:43;3.50;;;2.30;;
76115;SDS011;64847;45.778;12.802;2024-02-23T04:26:09;2.93;;;2.60;;
76115;SDS011;64847;45.778;12.802;2024-02-23T04:28:34;4.03;;;2.53;;
76115;SDS011;64847;45.778;12.802;2024-02-23T04:31:03;3.27;;;2.60;;
76115;SDS011;64847;45.778;12.802;2024-02-23T04:33:28;4.60;;;3.27;;
76115;SDS011;64847;45.778;12.802;2024-02-23T04:35:54;4.60;;;2.60;;
76115;SDS011;64847;45.778;12.802;2024-02-23T04:38:19;3.43;;;2.30;;
76115;SDS011;64847;45.778;12.802;2024-02-23T04:40:45;3.13;;;2.30;;
76115;SDS011;64847;45.778;12.802;2024-02-23T04:43:10;3.50;;;2.90;;
76115;SDS011;64847;45.778;12.802;2024-02-23T04:45:36;3.50;;;2.50;;
76115;SDS011;64847;45.778;12.802;2024-02-23T04:48:01;4.40;;;3.03;;
76115;SDS011;64847;45.778;12.802;2024-02-23T04:50:27;5.53;;;2.70;;
76115;SDS011;64847;45.778;12.802;2024-02-23T04:52:53;3.33;;;2.47;;
76115;SDS011;64847;45.778;12.802;2024-02-23T04:55:18;4.77;;;2.60;;
76115;SDS011;64847;45.778;12.802;2024-02-23T04:57:43;9.47;;;3.30;;
76115;SDS011;64847;45.778;12.802;2024-02-23T05:00:09;6.23;;;2.60;;
76115;SDS011;64847;45.778;12.802;2024-02-23T05:02:35;3.30;;;2.20;;
76115;SDS011;64847;45.778;12.802;2024-02-23T05:05:03;5.90;;;3.10;;
76115;SDS011;64847;45.778;12.802;2024-02-23T05:07:33;5.67;;;2.57;;
76115;SDS011;64847;45.778;12.802;2024-02-23T05:09:59;6.83;;;2.57;;
76115;SDS011;64847;45.778;12.802;2024-02-23T05:12:24;4.40;;;2.43;;
76115;SDS011;64847;45.778;12.802;2024-02-23T05:14:50;4.00;;;2.60;;
76115;SDS011;64847;45.778;12.802;2024-02-23T05:17:16;4.10;;;2.53;;
76115;SDS011;64847;45.778;12.802;2024-02-23T05:19:42;4.87;;;2.43;;
76115;SDS011;64847;45.778;12.802;2024-02-23T05:22:07;4.47;;;2.27;;
76115;SDS011;64847;45.778;12.802;2024-02-23T05:24:33;4.23;;;2.43;;
76115;SDS011;64847;45.778;12.802;2024-02-23T05:26:58;6.27;;;3.17;;
76115;SDS011;64847;45.778;12.802;2024-02-23T05:29:27;4.70;;;2.30;;
76115;SDS011;64847;45.778;12.802;2024-02-23T05:31:52;5.83;;;2.77;;
76115;SDS011;64847;45.778;12.802;2024-02-23T05:34:18;4.80;;;2.77;;
76115;SDS011;64847;45.778;12.802;2024-02-23T05:36:44;4.13;;;2.63;;
76115;SDS011;64847;45.778;12.802;2024-02-23T05:39:11;6.20;;;2.60;;
76115;SDS011;64847;45.778;12.802;2024-02-23T05:41:38;6.37;;;2.80;;
76115;SDS011;64847;45.778;12.802;2024-02-23T05:44:04;4.77;;;2.53;;
76115;SDS011;64847;45.778;12.802;2024-02-23T05:46:31;7.37;;;3.20;;
76115;SDS011;64847;45.778;12.802;2024-02-23T05:48:57;4.57;;;2.57;;
76115;SDS011;64847;45.778;12.802;2024-02-23T05:51:23;6.73;;;2.90;;
76115;SDS011;64847;45.778;12.802;2024-02-23T05:53:48;10.53;;;3.30;;
76115;SDS011;64847;45.778;12.802;2024-02-23T05:56:14;8.07;;;3.03;;
76115;SDS011;64847;45.778;12.802;2024-02-23T05:58:40;6.60;;;2.93;;
76115;SDS011;64847;45.778;12.802;2024-02-23T06:01:05;6.40;;;2.60;;
76115;SDS011;64847;45.778;12.802;2024-02-23T06:03:32;8.67;;;2.63;;
76115;SDS011;64847;45.778;12.802;2024-02-23T06:05:57;5.97;;;2.90;;
76115;SDS011;64847;45.778;12.802;2024-02-23T06:08:23;7.90;;;2.47;;
76115;SDS011;64847;45.778;12.802;2024-02-23T06:10:48;5.27;;;2.33;;
76115;SDS011;64847;45.778;12.802;2024-02-23T06:13:14;5.53;;;2.83;;
76115;SDS011;64847;45.778;12.802;2024-02-23T06:15:39;3.93;;;2.30;;
76115;SDS011;64847;45.778;12.802;2024-02-23T06:18:05;7.80;;;2.80;;
76115;SDS011;64847;45.778;12.802;2024-02-23T06:20:31;6.63;;;2.60;;
76115;SDS011;64847;45.778;12.802;2024-02-23T06:22:57;6.33;;;2.33;;
76115;SDS011;64847;45.778;12.802;2024-02-23T06:25:22;5.23;;;2.70;;
76115;SDS011;64847;45.778;12.802;2024-02-23T06:27:48;7.57;;;2.73;;
76115;SDS011;64847;45.778;12.802;2024-02-23T06:30:13;4.53;;;2.40;;
76115;SDS011;64847;45.778;12.802;2024-02-23T06:32:38;7.07;;;2.63;;
76115;SDS011;64847;45.778;12.802;2024-02-23T06:35:04;8.40;;;3.00;;
76115;SDS011;64847;45.778;12.802;2024-02-23T06:37:31;7.90;;;2.70;;
76115;SDS011;64847;45.778;12.802;2024-02-23T06:39:57;5.40;;;2.30;;
76115;SDS011;64847;45.778;12.802;2024-02-23T06:42:23;9.37;;;3.30;;
76115;SDS011;64847;45.778;12.802;2024-02-23T06:44:48;5.27;;;2.47;;
76115;SDS011;64847;45.778;12.802;2024-02-23T06:47:14;5.73;;;2.70;;
76115;SDS011;64847;45.778;12.802;2024-02-23T06:49:43;7.50;;;2.97;;
76115;SDS011;64847;45.778;12.802;2024-02-23T06:52:09;7.17;;;2.77;;
76115;SDS011;64847;45.778;12.802;2024-02-23T06:54:36;5.50;;;2.60;;
76115;SDS011;64847;45.778;12.802;2024-02-23T06:57:01;5.20;;;2.50;;
76115;SDS011;64847;45.778;12.802;2024-02-23T06:59:26;8.87;;;3.10;;
76115;SDS011;64847;45.778;12.802;2024-02-23T07:01:52;10.03;;;3.33;;
76115;SDS011;64847;45.778;12.802;2024-02-23T07:04:18;11.03;;;3.37;;
76115;SDS011;64847;45.778;12.802;2024-02-23T07:06:44;10.07;;;3.23;;
76115;SDS011;64847;45.778;12.802;2024-02-23T07:09:10;9.90;;;3.27;;
76115;SDS011;64847;45.778;12.802;2024-02-23T07:11:36;9.67;;;3.60;;
76115;SDS011;64847;45.778;12.802;2024-02-23T07:14:02;7.73;;;3.90;;
76115;SDS011;64847;45.778;12.802;2024-02-23T07:16:28;9.23;;;3.93;;
76115;SDS011;64847;45.778;12.802;2024-02-23T07:18:53;11.83;;;3.90;;
76115;SDS011;64847;45.778;12.802;2024-02-23T07:21:20;9.73;;;3.73;;
76115;SDS011;64847;45.778;12.802;2024-02-23T07:23:45;11.57;;;4.00;;
76115;SDS011;64847;45.778;12.802;2024-02-23T07:26:11;11.57;;;4.10;;
76115;SDS011;64847;45.778;12.802;2024-02-23T07:28:36;10.53;;;3.83;;
76115;SDS011;64847;45.778;12.802;2024-02-23T07:31:02;11.90;;;4.40;;
76115;SDS011;64847;45.778;12.802;2024-02-23T07:33:27;9.37;;;3.93;;
76115;SDS011;64847;45.778;12.802;2024-02-23T07:35:52;12.93;;;4.50;;
76115;SDS011;64847;45.778;12.802;2024-02-23T07:38:18;10.27;;;4.20;;
76115;SDS011;64847;45.778;12.802;2024-02-23T07:40:44;11.93;;;4.10;;
76115;SDS011;64847;45.778;12.802;2024-02-23T07:43:10;12.17;;;4.17;;
76115;SDS011;64847;45.778;12.802;2024-02-23T07:45:38;9.87;;;4.40;;
76115;SDS011;64847;45.778;12.802;2024-02-23T07:48:04;15.37;;;4.97;;
76115;SDS011;64847;45.778;12.802;2024-02-23T07:50:30;15.47;;;4.47;;
76115;SDS011;64847;45.778;12.802;2024-02-23T07:52:55;16.17;;;5.17;;
76115;SDS011;64847;45.778;12.802;2024-02-23T07:55:21;15.03;;;4.60;;
76115;SDS011;64847;45.778;12.802;2024-02-23T07:57:47;10.53;;;4.37;;
76115;SDS011;64847;45.778;12.802;2024-02-23T08:00:14;11.97;;;4.80;;
76115;SDS011;64847;45.778;12.802;2024-02-23T08:02:39;14.23;;;5.20;;
76115;SDS011;64847;45.778;12.802;2024-02-23T08:05:06;12.97;;;4.80;;
76115;SDS011;64847;45.778;12.802;2024-02-23T08:07:32;10.70;;;4.40;;
76115;SDS011;64847;45.778;12.802;2024-02-23T08:09:57;9.60;;;4.90;;
76115;SDS011;64847;45.778;12.802;2024-02-23T08:12:23;9.30;;;4.07;;
76115;SDS011;64847;45.778;12.802;2024-02-23T08:14:48;14.80;;;5.83;;
76115;SDS011;64847;45.778;12.802;2024-02-23T08:17:18;10.20;;;4.30;;
76115;SDS011;64847;45.778;12.802;2024-02-23T08:19:43;14.17;;;5.07;;
76115;SDS011;64847;45.778;12.802;2024-02-23T08:22:08;13.30;;;5.07;;
76115;SDS011;64847;45.778;12.802;2024-02-23T08:24:34;14.27;;;4.70;;
76115;SDS011;64847;45.778;12.802;2024-02-23T08:27:00;12.67;;;4.40;;
76115;SDS011;64847;45.778;12.802;2024-02-23T08:29:25;11.07;;;4.03;;
76115;SDS011;64847;45.778;12.802;2024-02-23T08:31:51;10.63;;;4.30;;
76115;SDS011;64847;45.778;12.802;2024-02-23T08:34:17;9.07;;;4.20;;
76115;SDS011;64847;45.778;12.802;2024-02-23T08:36:43;9.80;;;4.10;;
76115;SDS011;64847;45.778;12.802;2024-02-23T08:39:09;9.57;;;3.97;;
76115;SDS011;64847;45.778;12.802;2024-02-23T08:41:34;7.20;;;3.80;;
76115;SDS011;64847;45.778;12.802;2024-02-23T08:44:00;6.83;;;3.30;;
76115;SDS011;64847;45.778;12.802;2024-02-23T08:46:25;6.97;;;3.53;;
76115;SDS011;64847;45.778;12.802;2024-02-23T08:48:50;8.30;;;3.17;;
76115;SDS011;64847;45.778;12.802;2024-02-23T08:51:16;9.00;;;3.17;;
76115;SDS011;64847;45.778;12.802;2024-02-23T08:53:41;9.97;;;3.80;;
76115;SDS011;64847;45.778;12.802;2024-02-23T08:56:07;8.00;;;3.40;;
76115;SDS011;64847;45.778;12.802;2024-02-23T08:58:33;10.70;;;3.70;;
76115;SDS011;64847;45.778;12.802;2024-02-23T09:00:59;7.50;;;3.50;;
76115;SDS011;64847;45.778;12.802;2024-02-23T09:03:25;9.43;;;3.73;;
76115;SDS011;64847;45.778;12.802;2024-02-23T09:05:50;10.37;;;3.30;;
76115;SDS011;64847;45.778;12.802;2024-02-23T09:08:16;8.97;;;3.27;;
76115;SDS011;64847;45.778;12.802;2024-02-23T09:10:41;9.73;;;3.83;;
76115;SDS011;64847;45.778;12.802;2024-02-23T09:13:07;9.27;;;3.87;;
76115;SDS011;64847;45.778;12.802;2024-02-23T09:15:32;13.07;;;3.33;;
76115;SDS011;64847;45.778;12.802;2024-02-23T09:17:58;8.77;;;3.33;;
76115;SDS011;64847;45.778;12.802;2024-02-23T09:20:23;8.80;;;3.20;;
76115;SDS011;64847;45.778;12.802;2024-02-23T09:22:49;7.07;;;3.10;;
76115;SDS011;64847;45.778;12.802;2024-02-23T09:25:14;8.90;;;3.23;;
76115;SDS011;64847;45.778;12.802;2024-02-23T09:27:40;6.50;;;3.13;;
76115;SDS011;64847;45.778;12.802;2024-02-23T09:30:12;8.77;;;3.27;;
76115;SDS011;64847;45.778;12.802;2024-02-23T09:32:38;8.97;;;3.20;;
76115;SDS011;64847;45.778;12.802;2024-02-23T09:35:03;6.53;;;3.20;;
76115;SDS011;64847;45.778;12.802;2024-02-23T09:37:30;8.53;;;3.40;;
76115;SDS011;64847;45.778;12.802;2024-02-23T09:39:55;7.27;;;3.13;;
76115;SDS011;64847;45.778;12.802;2024-02-23T09:42:22;9.10;;;3.70;;
76115;SDS011;64847;45.778;12.802;2024-02-23T09:44:50;8.60;;;3.17;;
76115;SDS011;64847;45.778;12.802;2024-02-23T09:47:24;7.47;;;3.50;;
76115;SDS011;64847;45.778;12.802;2024-02-23T09:49:52;7.97;;;3.60;;
76115;SDS011;64847;45.778;12.802;2024-02-23T09:52:18;9.53;;;3.40;;
76115;SDS011;64847;45.778;12.802;2024-02-23T09:54:45;8.43;;;4.10;;
76115;SDS011;64847;45.778;12.802;2024-02-23T09:57:10;12.23;;;4.83;;
76115;SDS011;64847;45.778;12.802;2024-02-23T09:59:36;8.27;;;4.07;;
76115;SDS011;64847;45.778;12.802;2024-02-23T10:02:03;9.17;;;4.40;;
76115;SDS011;64847;45.778;12.802;2024-02-23T10:04:34;14.43;;;5.30;;
76115;SDS011;64847;45.778;12.802;2024-02-23T10:07:00;14.33;;;5.47;;
76115;SDS011;64847;45.778;12.802;2024-02-23T10:09:25;11.43;;;5.30;;
76115;SDS011;64847;45.778;12.802;2024-02-23T10:11:54;14.83;;;5.77;;
76115;SDS011;64847;45.778;12.802;2024-02-23T10:14:20;16.70;;;6.37;;
76115;SDS011;64847;45.778;12.802;2024-02-23T10:16:48;14.57;;;5.50;;
76115;SDS011;64847;45.778;12.802;2024-02-23T10:19:18;16.23;;;6.70;;
76115;SDS011;64847;45.778;12.802;2024-02-23T10:21:45;18.93;;;6.73;;
76115;SDS011;64847;45.778;12.802;2024-02-23T10:24:10;17.60;;;6.50;;
76115;SDS011;64847;45.778;12.802;2024-02-23T10:26:36;17.33;;;7.60;;
76115;SDS011;64847;45.778;12.802;2024-02-23T10:29:02;17.37;;;7.20;;
76115;SDS011;64847;45.778;12.802;2024-02-23T10:31:28;14.67;;;7.00;;
76115;SDS011;64847;45.778;12.802;2024-02-23T10:33:57;17.30;;;7.20;;
76115;SDS011;64847;45.778;12.802;2024-02-23T10:36:24;20.03;;;7.60;;
76115;SDS011;64847;45.778;12.802;2024-02-23T10:38:53;14.03;;;6.33;;
76115;SDS011;64847;45.778;12.802;2024-02-23T10:41:23;14.60;;;6.87;;
76115;SDS011;64847;45.778;12.802;2024-02-23T10:43:48;14.40;;;6.13;;
76115;SDS011;64847;45.778;12.802;2024-02-23T10:46:17;17.37;;;7.20;;
76115;SDS011;64847;45.778;12.802;2024-02-23T10:48:43;16.53;;;7.60;;
76115;SDS011;64847;45.778;12.802;2024-02-23T10:51:10;15.47;;;6.40;;
76115;SDS011;64847;45.778;12.802;2024-02-23T10:53:39;17.03;;;6.53;;
76115;SDS011;64847;45.778;12.802;2024-02-23T10:56:06;17.10;;;6.37;;
76115;SDS011;64847;45.778;12.802;2024-02-23T10:58:32;21.40;;;6.87;;
76115;SDS011;64847;45.778;12.802;2024-02-23T11:00:59;19.43;;;7.30;;
76115;SDS011;64847;45.778;12.802;2024-02-23T11:03:32;17.77;;;6.87;;
76115;SDS011;64847;45.778;12.802;2024-02-23T11:06:01;18.77;;;7.20;;
76115;SDS011;64847;45.778;12.802;2024-02-23T11:08:28;21.50;;;7.67;;
76115;SDS011;64847;45.778;12.802;2024-02-23T11:10:54;17.93;;;7.07;;
76115;SDS011;64847;45.778;12.802;2024-02-23T11:13:40;17.90;;;7.27;;
76115;SDS011;64847;45.778;12.802;2024-02-23T11:16:06;18.07;;;7.23;;
76115;SDS011;64847;45.778;12.802;2024-02-23T11:18:37;19.90;;;7.10;;
76115;SDS011;64847;45.778;12.802;2024-02-23T11:21:04;21.73;;;8.23;;
76115;SDS011;64847;45.778;12.802;2024-02-23T11:23:44;17.27;;;7.70;;
76115;SDS011;64847;45.778;12.802;2024-02-23T11:26:11;17.17;;;8.13;;
76115;SDS011;64847;45.778;12.802;2024-02-23T11:31:22;23.53;;;8.03;;
76115;SDS011;64847;45.778;12.802;2024-02-23T11:33:52;21.17;;;8.90;;
76115;SDS011;64847;45.778;12.802;2024-02-23T11:36:38;23.60;;;8.80;;
76115;SDS011;64847;45.778;12.802;2024-02-23T11:39:03;22.20;;;9.17;;
76115;SDS011;64847;45.778;12.802;2024-02-23T11:41:30;22.20;;;8.93;;
76115;SDS011;64847;45.778;12.802;2024-02-23T11:43:56;22.63;;;7.80;;
76115;SDS011;64847;45.778;12.802;2024-02-23T11:46:23;19.80;;;8.30;;
76115;SDS011;64847;45.778;12.802;2024-02-23T11:48:48;23.83;;;8.53;;
76115;SDS011;64847;45.778;12.802;2024-02-23T11:51:20;19.63;;;8.07;;
76115;SDS011;64847;45.778;12.802;2024-02-23T11:53:48;21.53;;;8.00;;
76115;SDS011;64847;45.778;12.802;2024-02-23T11:56:14;20.57;;;8.13;;
76115;SDS011;64847;45.778;12.802;2024-02-23T11:58:39;17.00;;;7.50;;
76115;SDS011;64847;45.778;12.802;2024-02-23T12:01:05;19.33;;;7.00;;
76115;SDS011;64847;45.778;12.802;2024-02-23T12:03:32;19.33;;;8.33;;
76115;SDS011;64847;45.778;12.802;2024-02-23T12:05:57;24.13;;;8.00;;
76115;SDS011;64847;45.778;12.802;2024-02-23T12:08:26;21.80;;;8.80;;
76115;SDS011;64847;45.778;12.802;2024-02-23T12:10:55;19.87;;;7.60;;
76115;SDS011;64847;45.778;12.802;2024-02-23T12:13:21;21.10;;;7.87;;
76115;SDS011;64847;45.778;12.802;2024-02-23T12:15:47;19.07;;;7.47;;
76115;SDS011;64847;45.778;12.802;2024-02-23T12:18:13;21.43;;;7.73;;
76115;SDS011;64847;45.778;12.802;2024-02-23T12:20:40;21.37;;;8.00;;
76115;SDS011;64847;45.778;12.802;2024-02-23T12:23:05;21.77;;;8.67;;
76115;SDS011;64847;45.778;12.802;2024-02-23T12:25:33;19.67;;;7.57;;
76115;SDS011;64847;45.778;12.802;2024-02-23T12:27:58;19.97;;;8.97;;
76115;SDS011;64847;45.778;12.802;2024-02-23T12:30:25;18.33;;;8.07;;
76115;SDS011;64847;45.778;12.802;2024-02-23T12:33:15;18.77;;;7.67;;
76115;SDS011;64847;45.778;12.802;2024-02-23T12:35:40;27.83;;;8.87;;
76115;SDS011;64847;45.778;12.802;2024-02-23T12:38:05;22.33;;;7.80;;
76115;SDS011;64847;45.778;12.802;2024-02-23T12:40:31;22.63;;;8.17;;
76115;SDS011;64847;45.778;12.802;2024-02-23T12:42:56;24.10;;;8.33;;
76115;SDS011;64847;45.778;12.802;2024-02-23T12:45:22;20.40;;;7.67;;
76115;SDS011;64847;45.778;12.802;2024-02-23T12:47:47;20.43;;;7.30;;
76115;SDS011;64847;45.778;12.802;2024-02-23T12:50:12;24.80;;;7.80;;
76115;SDS011;64847;45.778;12.802;2024-02-23T12:52:38;15.80;;;6.27;;
76115;SDS011;64847;45.778;12.802;2024-02-23T12:55:03;18.63;;;7.17;;
76115;SDS011;64847;45.778;12.802;2024-02-23T12:57:29;18.77;;;7.50;;
76115;SDS011;64847;45.778;12.802;2024-02-23T12:59:55;22.67;;;7.13;;
76115;SDS011;64847;45.778;12.802;2024-02-23T13:02:20;21.13;;;7.83;;
76115;SDS011;64847;45.778;12.802;2024-02-23T13:04:46;18.23;;;6.97;;
76115;SDS011;64847;45.778;12.802;2024-02-23T13:07:17;20.23;;;6.80;;
76115;SDS011;64847;45.778;12.802;2024-02-23T13:09:43;19.33;;;7.27;;
76115;SDS011;64847;45.778;12.802;2024-02-23T13:12:08;18.07;;;7.63;;
76115;SDS011;64847;45.778;12.802;2024-02-23T13:14:34;19.67;;;7.70;;
76115;SDS011;64847;45.778;12.802;2024-02-23T13:16:59;18.00;;;7.20;;
76115;SDS011;64847;45.778;12.802;2024-02-23T13:19:25;18.57;;;6.40;;
76115;SDS011;64847;45.778;12.802;2024-02-23T13:21:50;13.03;;;6.20;;
76115;SDS011;64847;45.778;12.802;2024-02-23T13:24:16;12.47;;;6.03;;
76115;SDS011;64847;45.778;12.802;2024-02-23T13:26:41;9.93;;;5.67;;
76115;SDS011;64847;45.778;12.802;2024-02-23T13:29:07;10.80;;;5.40;;
76115;SDS011;64847;45.778;12.802;2024-02-23T13:31:32;10.70;;;5.77;;
76115;SDS011;64847;45.778;12.802;2024-02-23T13:33:58;7.37;;;5.00;;
76115;SDS011;64847;45.778;12.802;2024-02-23T13:36:23;8.27;;;4.23;;
76115;SDS011;64847;45.778;12.802;2024-02-23T13:38:48;8.87;;;4.60;;
76115;SDS011;64847;45.778;12.802;2024-02-23T13:41:16;8.20;;;4.33;;
76115;SDS011;64847;45.778;12.802;2024-02-23T13:43:41;9.50;;;4.77;;
76115;SDS011;64847;45.778;12.802;2024-02-23T13:46:07;10.47;;;5.07;;
76115;SDS011;64847;45.778;12.802;2024-02-23T13:48:32;8.13;;;4.43;;
76115;SDS011;64847;45.778;12.802;2024-02-23T13:50:57;7.83;;;4.57;;
76115;SDS011;64847;45.778;12.802;2024-02-23T13:53:28;10.47;;;4.70;;
76115;SDS011;64847;45.778;12.802;2024-02-23T13:55:53;9.10;;;4.60;;
76115;SDS011;64847;45.778;12.802;2024-02-23T13:58:18;8.43;;;4.97;;
76115;SDS011;64847;45.778;12.802;2024-02-23T14:00:45;9.27;;;4.07;;
76115;SDS011;64847;45.778;12.802;2024-02-23T14:03:15;5.40;;;4.30;;
76115;SDS011;64847;45.778;12.802;2024-02-23T14:05:42;5.93;;;4.20;;
76115;SDS011;64847;45.778;12.802;2024-02-23T14:08:09;7.27;;;3.97;;
76115;SDS011;64847;45.778;12.802;2024-02-23T14:10:35;4.37;;;3.87;;
76115;SDS011;64847;45.778;12.802;2024-02-23T14:13:01;7.03;;;4.17;;
76115;SDS011;64847;45.778;12.802;2024-02-23T14:15:26;7.27;;;4.27;;
76115;SDS011;64847;45.778;12.802;2024-02-23T14:17:52;6.93;;;4.07;;
76115;SDS011;64847;45.778;12.802;2024-02-23T14:20:17;6.20;;;4.63;;
76115;SDS011;64847;45.778;12.802;2024-02-23T14:22:43;7.53;;;4.03;;
76115;SDS011;64847;45.778;12.802;2024-02-23T14:25:08;5.50;;;4.27;;
76115;SDS011;64847;45.778;12.802;2024-02-23T14:27:35;6.60;;;3.87;;